Time;durP1;ratioP1;P1;durP2;ratioP2;P2;SDS_P1;SDS_P2;PMS_P1;PMS_P2;Temp;Humidity;BMP_temperature;BMP_pressure;BME280_temperature;BME280_humidity;BME280_pressure;Samples;Min_cycle;Max_cycle;Signal;HPM_P1;HPM_P2
2021/06/27 00:00:41;;;;;;;;;;;;;;;25.13;61.94;100834.56;5028616;28;774;-65
2021/06/27 00:03:26;;;;;;;;;;;;;;;25.04;61.16;100826.47;5041247;28;1257;-65
2021/06/27 00:06:12;;;;;;;;;;;;;;;25.02;62.19;100829.25;5028132;28;687;-65
2021/06/27 00:08:57;;;;;;;;;;;;;;;25.09;60.43;100819.78;5028577;28;683;-64
2021/06/27 00:11:42;;;;;;;;;;;;;;;24.98;61.85;100834.00;5028293;28;1274;-65
2021/06/27 00:14:28;;;;;;;;;;;;;;;25.08;61.92;100835.94;5028199;28;612;-64
2021/06/27 00:17:13;;;;;;;;;;;;;;;25.05;61.20;100823.66;5027853;28;1568;-65
2021/06/27 00:19:58;;;;;;;;;;;;;;;25.08;61.90;100812.75;5028299;28;1906;-65
2021/06/27 00:22:43;;;;;;;;;;;;;;;25.11;60.91;100807.19;5028404;28;1233;-65
2021/06/27 00:25:30;;;;;;;;;;;;;;;25.08;61.20;100807.44;5028615;28;664;-65
2021/06/27 00:28:15;;;;;;;;;;;;;;;25.13;60.04;100797.25;5028414;28;1278;-65
2021/06/27 00:31:03;;;;;;;;;;;;;;;25.11;60.75;100785.84;5028155;28;660;-64
2021/06/27 00:33:49;;;;;;;;;;;;;;;25.05;61.40;100799.69;5028047;28;711;-64
2021/06/27 00:36:34;;;;;;;;;;;;;;;25.03;60.95;100798.97;5027736;28;1630;-64
2021/06/27 00:39:19;;;;;;;;;;;;;;;25.07;60.90;100803.09;5028105;28;1902;-64
2021/06/27 00:42:04;;;;;;;;;;;;;;;25.04;59.90;100794.50;5027709;28;1339;-64
2021/06/27 00:44:50;;;;;;;;;;;;;;;25.00;60.28;100788.56;5027994;28;632;-64
2021/06/27 00:47:36;;;;;;;;;;;;;;;25.06;58.62;100788.06;5027290;28;1280;-65
2021/06/27 00:50:23;;;;;;;;;;;;;;;25.10;58.44;100783.34;5027919;28;575;-66
2021/06/27 00:53:09;;;;;;;;;;;;;;;25.04;56.66;100782.03;5028039;28;1249;-67
2021/06/27 00:55:54;;;;;;;;;;;;;;;25.04;56.44;100779.34;5027734;28;659;-67
2021/06/27 00:58:41;;;;;;;;;;;;;;;25.06;55.74;100782.72;5028026;28;1985;-67
2021/06/27 01:01:26;;;;;;;;;;;;;;;25.07;55.16;100779.09;5027795;28;1312;-66
2021/06/27 01:04:11;;;;;;;;;;;;;;;25.05;54.52;100772.22;5040339;28;723;-67
2021/06/27 01:06:57;;;;;;;;;;;;;;;25.02;54.55;100776.81;5026161;28;1244;-66
2021/06/27 01:09:42;;;;;;;;;;;;;;;24.93;54.73;100760.72;5027893;28;620;-66
2021/06/27 01:12:27;;;;;;;;;;;;;;;25.00;54.56;100749.44;5027496;28;1263;-66
2021/06/27 01:15:16;;;;;;;;;;;;;;;24.98;54.35;100731.91;5027417;28;632;-67
2021/06/27 01:18:01;;;;;;;;;;;;;;;24.97;54.40;100730.19;5027306;28;1898;-66
2021/06/27 01:20:47;;;;;;;;;;;;;;;24.99;54.97;100706.91;5027837;28;714;-66
2021/06/27 01:23:33;;;;;;;;;;;;;;;25.00;55.51;100693.47;5027008;28;1284;-66
2021/06/27 01:26:18;;;;;;;;;;;;;;;24.98;56.44;100686.59;5027585;28;1297;-66
2021/06/27 01:29:03;;;;;;;;;;;;;;;24.97;56.51;100692.88;5030093;28;777;-67
2021/06/27 01:31:49;;;;;;;;;;;;;;;24.98;56.40;100707.91;5030891;28;1271;-67
2021/06/27 01:34:34;;;;;;;;;;;;;;;24.95;56.62;100717.03;5031261;28;612;-67
2021/06/27 01:37:19;;;;;;;;;;;;;;;24.97;56.72;100730.19;5030294;28;1247;-66
2021/06/27 01:40:05;;;;;;;;;;;;;;;24.96;56.69;100733.81;5031048;28;1898;-65
2021/06/27 01:42:51;;;;;;;;;;;;;;;24.98;56.52;100738.09;5030842;28;1347;-66
2021/06/27 01:45:39;;;;;;;;;;;;;;;24.94;56.59;100738.44;5030952;28;644;-66
2021/06/27 01:48:24;;;;;;;;;;;;;;;24.99;56.45;100752.22;5031270;28;1217;-66
2021/06/27 01:51:10;;;;;;;;;;;;;;;24.93;56.69;100758.06;5030811;28;707;-65
2021/06/27 01:53:55;;;;;;;;;;;;;;;24.99;56.50;100753.06;5030057;28;673;-65
2021/06/27 01:56:40;;;;;;;;;;;;;;;25.02;55.99;100748.50;5030621;28;1236;-65
2021/06/27 01:59:25;;;;;;;;;;;;;;;25.00;56.24;100740.59;5043307;28;1910;-66
2021/06/27 02:02:11;;;;;;;;;;;;;;;24.98;55.85;100739.91;5030882;28;1266;-66
2021/06/27 02:04:56;;;;;;;;;;;;;;;24.96;56.03;100734.69;5030709;28;656;-66
2021/06/27 02:07:41;;;;;;;;;;;;;;;24.91;56.07;100726.22;5030413;28;1272;-66
2021/06/27 02:10:28;;;;;;;;;;;;;;;24.94;56.27;100730.44;5029363;28;647;-66
2021/06/27 02:13:13;;;;;;;;;;;;;;;24.95;56.35;100722.34;5030062;28;1316;-64
2021/06/27 02:15:59;;;;;;;;;;;;;;;24.97;56.30;100719.53;5030401;28;637;-64
2021/06/27 02:18:45;;;;;;;;;;;;;;;24.91;56.24;100714.72;5029978;28;1964;-64
2021/06/27 02:21:33;;;;;;;;;;;;;;;24.89;56.52;100711.34;5030160;28;1276;-66
2021/06/27 02:24:18;;;;;;;;;;;;;;;24.85;56.45;100712.56;5030252;28;568;-66
2021/06/27 02:27:04;;;;;;;;;;;;;;;24.87;56.66;100714.13;5030299;28;1287;-66
2021/06/27 02:29:49;;;;;;;;;;;;;;;24.91;56.63;100714.72;5030380;28;624;-64
2021/06/27 02:32:35;;;;;;;;;;;;;;;24.86;56.46;100715.13;5031318;28;1355;-64
2021/06/27 02:35:23;;;;;;;;;;;;;;;24.90;56.63;100713.03;5029532;28;699;-66
2021/06/27 02:38:09;;;;;;;;;;;;;;;24.86;56.63;100706.28;5029139;28;1902;-66
2021/06/27 02:40:54;;;;;;;;;;;;;;;24.85;56.99;100705.44;5029556;28;691;-66
2021/06/27 02:43:40;;;;;;;;;;;;;;;24.83;56.93;100702.06;5030119;28;1366;-66
2021/06/27 02:46:25;;;;;;;;;;;;;;;24.82;57.45;100699.50;5028891;28;1364;-66
2021/06/27 02:49:11;;;;;;;;;;;;;;;24.87;57.09;100700.81;5029260;28;640;-65
2021/06/27 02:51:56;;;;;;;;;;;;;;;24.82;56.87;100694.19;5042875;28;1283;-64
2021/06/27 02:54:41;;;;;;;;;;;;;;;24.78;57.34;100698.88;5029725;28;659;-65
2021/06/27 02:57:26;;;;;;;;;;;;;;;24.83;57.65;100691.41;5029800;28;1282;-65
2021/06/27 03:00:16;;;;;;;;;;;;;;;24.77;57.84;100680.38;5029395;28;1910;-66
2021/06/27 03:03:01;;;;;;;;;;;;;;;24.79;58.12;100681.06;5029698;28;1391;-66
2021/06/27 03:05:46;;;;;;;;;;;;;;;24.77;58.26;100677.72;5029514;28;632;-66
2021/06/27 03:08:32;;;;;;;;;;;;;;;24.82;57.59;100672.88;5029861;28;1273;-66
2021/06/27 03:11:17;;;;;;;;;;;;;;;24.67;57.91;100671.44;5029293;28;652;-66
2021/06/27 03:14:03;;;;;;;;;;;;;;;24.65;58.81;100673.41;5029223;28;629;-65
2021/06/27 03:16:48;;;;;;;;;;;;;;;24.73;58.37;100668.28;5028958;28;1480;-65
2021/06/27 03:19:33;;;;;;;;;;;;;;;24.64;58.75;100663.72;5029044;28;1926;-65
2021/06/27 03:22:18;;;;;;;;;;;;;;;24.68;58.78;100666.00;5029281;28;1295;-65
2021/06/27 03:25:05;;;;;;;;;;;;;;;24.68;59.33;100659.81;5029024;28;612;-65
2021/06/27 03:27:50;;;;;;;;;;;;;;;24.70;58.82;100661.38;5029520;28;1234;-65
2021/06/27 03:30:36;;;;;;;;;;;;;;;24.74;58.99;100659.31;5028994;28;625;-65
2021/06/27 03:33:22;;;;;;;;;;;;;;;24.68;59.52;100663.34;5029013;28;1276;-66
2021/06/27 03:36:10;;;;;;;;;;;;;;;24.67;59.51;100663.44;5028472;28;612;-65
2021/06/27 03:39:02;;;;;;;;;;;;;;;24.73;58.74;100657.63;5028370;28;1950;-65
2021/06/27 03:41:54;;;;;;;;;;;;;;;24.71;59.29;100659.56;5028579;28;1286;-65
2021/06/27 03:44:39;;;;;;;;;;;;;;;24.60;60.17;100654.28;5028585;28;715;-66
2021/06/27 03:47:25;;;;;;;;;;;;;;;24.68;59.25;100659.81;5028029;28;1346;-64
2021/06/27 03:50:11;;;;;;;;;;;;;;;24.61;60.31;100653.31;5027663;28;707;-65
2021/06/27 03:52:56;;;;;;;;;;;;;;;24.70;59.21;100652.53;5028617;28;1288;-64
2021/06/27 03:55:41;;;;;;;;;;;;;;;24.71;59.01;100655.09;5028254;28;699;-65
2021/06/27 03:58:27;;;;;;;;;;;;;;;24.72;59.15;100656.75;5028642;28;1295;-65
2021/06/27 04:01:13;;;;;;;;;;;;;;;24.67;59.04;100653.66;5028304;28;664;-66
2021/06/27 04:03:58;;;;;;;;;;;;;;;24.63;59.81;100652.19;5028429;28;738;-65
2021/06/27 04:06:44;;;;;;;;;;;;;;;24.68;60.15;100649.16;5028346;28;1375;-67
2021/06/27 04:09:29;;;;;;;;;;;;;;;24.69;59.42;100651.69;5028496;28;573;-67
2021/06/27 04:12:14;;;;;;;;;;;;;;;24.63;60.06;100652.19;5028071;28;1247;-67
2021/06/27 04:15:00;;;;;;;;;;;;;;;24.63;59.74;100656.69;5028087;28;636;-66
2021/06/27 04:17:45;;;;;;;;;;;;;;;24.61;59.95;100653.31;5027777;28;1514;-66
2021/06/27 04:20:30;;;;;;;;;;;;;;;24.64;58.93;100643.25;5028272;28;1902;-66
2021/06/27 04:23:16;;;;;;;;;;;;;;;24.59;59.92;100648.13;5028197;28;1229;-66
2021/06/27 04:26:01;;;;;;;;;;;;;;;24.61;59.93;100647.97;5028115;28;626;-65
2021/06/27 04:28:47;;;;;;;;;;;;;;;24.59;59.76;100649.94;5027006;28;628;-66
2021/06/27 04:31:32;;;;;;;;;;;;;;;24.54;59.83;100649.44;5027570;28;1307;-66
2021/06/27 04:34:20;;;;;;;;;;;;;;;24.59;59.45;100653.44;5027694;28;680;-65
2021/06/27 04:37:05;;;;;;;;;;;;;;;24.63;58.72;100656.69;5027971;28;1375;-65
2021/06/27 04:39:51;;;;;;;;;;;;;;;24.56;59.62;100655.50;5027934;28;1914;-65
2021/06/27 04:42:36;;;;;;;;;;;;;;;24.54;59.57;100657.44;5054587;28;1237;-65
2021/06/27 04:45:21;;;;;;;;;;;;;;;24.54;59.27;100652.13;5028243;28;632;-66
2021/06/27 04:48:07;;;;;;;;;;;;;;;24.56;58.74;100656.38;5027227;28;1464;-66
2021/06/27 04:50:53;;;;;;;;;;;;;;;24.56;59.45;100655.50;5027828;28;641;-65
2021/06/27 04:53:38;;;;;;;;;;;;;;;24.59;59.13;100655.25;5028089;28;1285;-64
2021/06/27 04:56:24;;;;;;;;;;;;;;;24.58;59.23;100654.41;5027898;28;1364;-64
2021/06/27 04:59:10;;;;;;;;;;;;;;;24.53;59.52;100656.59;5027984;28;1976;-64
2021/06/27 05:01:55;;;;;;;;;;;;;;;24.60;58.95;100662.25;5028879;28;1283;-66
2021/06/27 05:04:40;;;;;;;;;;;;;;;24.58;59.58;100653.56;5032596;28;1178;-67
2021/06/27 05:07:25;;;;;;;;;;;;;;;24.65;59.21;100652.09;5050399;28;1395;-67
2021/06/27 05:10:11;;;;;;;;;;;;;;;24.68;59.25;100654.50;5048253;28;1098;-67
2021/06/27 05:12:56;;;;;;;;;;;;;;;24.72;58.92;100650.59;5048990;28;1421;-68
2021/06/27 05:15:41;;;;;;;;;;;;;;;24.73;58.77;100645.16;5049627;28;944;-66
2021/06/27 05:18:27;;;;;;;;;;;;;;;24.75;58.83;100643.19;5049727;28;1708;-68
2021/06/27 05:21:12;;;;;;;;;;;;;;;24.77;58.56;100637.75;5047903;28;1952;-63
2021/06/27 05:23:57;;;;;;;;;;;;;;;24.79;58.55;100644.63;5048524;28;1043;-66
2021/06/27 05:26:42;;;;;;;;;;;;;;;24.81;58.46;100644.53;5048886;28;1380;-65
2021/06/27 05:29:27;;;;;;;;;;;;;;;24.82;58.28;100649.72;5050102;28;1210;-65
2021/06/27 05:32:13;;;;;;;;;;;;;;;24.84;58.17;100649.59;5047830;28;1335;-67
2021/06/27 05:34:59;;;;;;;;;;;;;;;24.84;58.28;100649.59;5048028;28;1063;-71
2021/06/27 05:37:44;;;;;;;;;;;;;;;24.86;58.10;100650.31;5047713;28;1351;-72
2021/06/27 05:40:30;;;;;;;;;;;;;;;24.88;57.90;100641.22;5045943;28;1926;-67
2021/06/27 05:43:15;;;;;;;;;;;;;;;24.88;57.72;100640.38;5046546;28;1319;-67
2021/06/27 05:46:02;;;;;;;;;;;;;;;24.88;57.59;100641.22;5047292;28;1056;-67
2021/06/27 05:48:47;;;;;;;;;;;;;;;24.90;57.84;100638.41;5048574;28;1150;-65
2021/06/27 05:51:32;;;;;;;;;;;;;;;24.91;57.90;100650.78;5047621;28;1318;-67
2021/06/27 05:54:18;;;;;;;;;;;;;;;24.91;57.79;100643.63;5046824;28;1099;-66
2021/06/27 05:57:04;;;;;;;;;;;;;;;24.92;57.77;100647.16;5045401;28;1376;-65
2021/06/27 05:59:49;;;;;;;;;;;;;;;24.94;57.43;100650.50;5046653;28;1898;-66
2021/06/27 06:02:35;;;;;;;;;;;;;;;24.94;57.66;100655.84;5047309;28;1455;-67
2021/06/27 06:05:20;;;;;;;;;;;;;;;24.96;57.40;100653.88;5047957;28;1052;-67
2021/06/27 06:08:05;;;;;;;;;;;;;;;24.96;57.43;100648.56;5048979;28;1343;-66
2021/06/27 06:10:51;;;;;;;;;;;;;;;24.97;57.59;100650.25;5046892;28;985;-66
2021/06/27 06:13:37;;;;;;;;;;;;;;;24.98;57.36;100652.81;5046791;28;1247;-65
2021/06/27 06:16:30;;;;;;;;;;;;;;;24.99;57.44;100653.63;5046144;28;1395;-67
2021/06/27 06:19:18;;;;;;;;;;;;;;;25.01;57.83;100646.38;5047009;28;1902;-66
2021/06/27 06:22:03;;;;;;;;;;;;;;;25.00;57.78;100656.19;5047601;28;1263;-66
2021/06/27 06:24:49;;;;;;;;;;;;;;;24.98;57.87;100657.28;5044658;28;1131;-68
2021/06/27 06:27:34;;;;;;;;;;;;;;;25.02;57.73;100658.69;5046297;28;1225;-67
2021/06/27 06:30:20;;;;;;;;;;;;;;;25.02;58.18;100666.69;5045608;28;1080;-66
2021/06/27 06:33:10;;;;;;;;;;;;;;;25.03;58.09;100660.41;5032595;28;1479;-68
2021/06/27 06:35:55;;;;;;;;;;;;;;;25.05;58.09;100665.63;5045188;28;1119;-71
2021/06/27 06:38:41;;;;;;;;;;;;;;;25.06;58.16;100668.13;5045749;28;1317;-66
2021/06/27 06:41:26;;;;;;;;;;;;;;;24.99;58.87;100667.81;5048015;28;1879;-73
2021/06/27 06:44:13;;;;;;;;;;;;;;;25.07;58.43;100669.84;5043992;28;1681;-72
2021/06/27 06:46:58;;;;;;;;;;;;;;;25.08;58.63;100666.16;5048549;28;1288;-72
2021/06/27 06:49:44;;;;;;;;;;;;;;;25.02;59.12;100669.34;5047995;28;987;-74
2021/06/27 06:52:29;;;;;;;;;;;;;;;25.12;58.66;100664.09;5048148;28;1324;-73
2021/06/27 06:55:14;;;;;;;;;;;;;;;25.14;58.47;100673.66;5044562;28;1003;-75
2021/06/27 06:57:59;;;;;;;;;;;;;;;25.05;58.80;100663.78;5044842;28;1302;-75
2021/06/27 07:00:45;;;;;;;;;;;;;;;25.13;58.48;100671.97;5045877;28;1906;-67
2021/06/27 07:03:30;;;;;;;;;;;;;;;25.16;58.22;100670.88;5046511;28;1480;-67
2021/06/27 07:06:18;;;;;;;;;;;;;;;25.17;57.72;100661.91;5044595;28;1098;-71
2021/06/27 07:09:03;;;;;;;;;;;;;;;25.17;57.97;100667.25;5045248;28;1023;-68
2021/06/27 07:11:48;;;;;;;;;;;;;;;25.14;58.35;100665.66;5048201;28;1370;-72
2021/06/27 07:14:34;;;;;;;;;;;;;;;25.13;58.04;100661.31;5044044;28;925;-73
2021/06/27 07:17:19;;;;;;;;;;;;;;;25.19;58.04;100668.78;5046013;28;1683;-71
2021/06/27 07:20:06;;;;;;;;;;;;;;;25.22;56.96;100657.88;5045183;28;1907;-71
2021/06/27 07:22:51;;;;;;;;;;;;;;;25.21;56.63;100656.16;5047624;28;1252;-72
2021/06/27 07:25:39;;;;;;;;;;;;;;;25.16;56.89;100653.06;5046726;28;1124;-74
2021/06/27 07:28:25;;;;;;;;;;;;;;;25.15;56.78;100643.38;5063452;28;1443;-71
2021/06/27 07:31:10;;;;;;;;;;;;;;;25.20;56.76;100657.13;5064793;28;969;-71
2021/06/27 07:33:56;;;;;;;;;;;;;;;25.20;57.03;100657.13;5048676;28;996;-69
2021/06/27 07:36:42;;;;;;;;;;;;;;;25.21;57.01;100657.97;5047886;28;1328;-70
2021/06/27 07:39:27;;;;;;;;;;;;;;;25.23;56.34;100656.88;5046727;28;1906;-75
2021/06/27 07:42:12;;;;;;;;;;;;;;;25.24;56.83;100663.91;5047403;28;1354;-74
2021/06/27 07:44:58;;;;;;;;;;;;;;;25.27;56.07;100658.31;5045201;28;1111;-70
2021/06/27 07:47:43;;;;;;;;;;;;;;;25.27;56.19;100665.47;5046636;28;1292;-70
2021/06/27 07:50:29;;;;;;;;;;;;;;;25.27;55.69;100658.31;5046639;28;1095;-69
2021/06/27 07:53:14;;;;;;;;;;;;;;;25.29;55.97;100660.88;5044933;28;1308;-73
2021/06/27 07:55:59;;;;;;;;;;;;;;;25.29;55.79;100664.34;5047469;28;1671;-67
2021/06/27 07:58:45;;;;;;;;;;;;;;;25.28;55.26;100659.16;5048512;28;1107;-70
2021/06/27 08:01:30;;;;;;;;;;;;;;;25.33;55.07;100657.78;5044788;28;1890;-65
2021/06/27 08:04:15;;;;;;;;;;;;;;;25.35;55.35;100655.00;5047455;28;1372;-65
2021/06/27 08:07:01;;;;;;;;;;;;;;;25.36;55.39;100654.84;5045914;28;1426;-66
2021/06/27 08:09:46;;;;;;;;;;;;;;;25.37;55.27;100661.88;5044043;28;1143;-62
2021/06/27 08:12:32;;;;;;;;;;;;;;;25.36;55.36;100660.19;5045530;28;1394;-67
2021/06/27 08:15:18;;;;;;;;;;;;;;;25.38;55.06;100663.56;5043342;28;1107;-66
2021/06/27 08:18:03;;;;;;;;;;;;;;;25.39;55.57;100665.25;5042887;28;1770;-64
2021/06/27 08:20:49;;;;;;;;;;;;;;;25.44;55.29;100663.03;5043587;28;1965;-63
2021/06/27 08:23:34;;;;;;;;;;;;;;;25.47;55.38;100662.75;5045188;28;1333;-65
2021/06/27 08:26:23;;;;;;;;;;;;;;;25.45;55.41;100664.72;5042426;28;1393;-70
2021/06/27 08:29:08;;;;;;;;;;;;;;;25.47;55.53;100665.44;5042732;28;1080;-69
2021/06/27 08:31:53;;;;;;;;;;;;;;;25.48;55.72;100666.28;5044420;28;1315;-72
2021/06/27 08:34:38;;;;;;;;;;;;;;;25.47;55.87;100665.44;5043402;28;1030;-68
2021/06/27 08:37:24;;;;;;;;;;;;;;;25.50;55.77;100665.19;5043858;28;1327;-72
2021/06/27 08:40:10;;;;;;;;;;;;;;;25.49;55.82;100663.53;5044379;28;1989;-72
2021/06/27 08:42:55;;;;;;;;;;;;;;;25.56;55.63;100671.00;5045201;28;1396;-69
2021/06/27 08:45:50;;;;;;;;;;;;;;;25.55;55.88;100672.81;5043556;28;1144;-68
2021/06/27 08:48:38;;;;;;;;;;;;;;;25.57;55.89;100678.00;5043061;28;1343;-66
2021/06/27 08:51:23;;;;;;;;;;;;;;;25.60;56.08;100675.06;5044161;28;1410;-69
2021/06/27 08:54:10;;;;;;;;;;;;;;;25.61;55.10;100676.75;5044780;28;1058;-72
2021/06/27 08:56:55;;;;;;;;;;;;;;;25.56;56.17;100668.31;5045243;28;1296;-74
2021/06/27 08:59:40;;;;;;;;;;;;;;;25.54;55.73;100669.28;5043712;28;1091;-74
2021/06/27 09:02:26;;;;;;;;;;;;;;;25.53;55.77;100669.44;5044133;28;1358;-73
2021/06/27 09:05:12;;;;;;;;;;;;;;;25.53;55.91;100667.59;5043654;28;1072;-75
2021/06/27 09:08:12;;;;;;;;;;;;;;;25.56;56.47;100673.66;5044408;28;1446;-75
2021/06/27 09:11:14;;;;;;;;;;;;;;;25.57;56.45;100672.66;5044613;28;1124;-75
2021/06/27 09:14:00;;;;;;;;;;;;;;;25.55;56.92;100672.81;5045731;28;1274;-74
2021/06/27 09:17:03;;;;;;;;;;;;;;;25.55;56.47;100667.47;5043564;28;1422;-75
2021/06/27 09:19:55;;;;;;;;;;;;;;;25.55;56.91;100667.47;5044706;28;1910;-73
2021/06/27 09:22:41;;;;;;;;;;;;;;;25.54;56.76;100663.13;5046204;28;1340;-75
2021/06/27 09:25:28;;;;;;;;;;;;;;;25.55;56.28;100670.16;5044579;28;1075;-75
2021/06/27 09:28:15;;;;;;;;;;;;;;;25.56;55.79;100671.00;5045249;28;1328;-76
2021/06/27 09:31:00;;;;;;;;;;;;;;;25.56;55.64;100666.50;5045846;28;1001;-76
2021/06/27 09:33:56;;;;;;;;;;;;;;;25.58;55.84;100661.03;5043568;28;1151;-76
2021/06/27 09:36:53;;;;;;;;;;;;;;;25.57;55.10;100662.00;5045779;28;1327;-78
2021/06/27 09:39:52;;;;;;;;;;;;;;;25.59;55.05;100668.06;5044155;28;1185;-77
2021/06/27 09:42:38;;;;;;;;;;;;;;;25.58;54.55;100664.53;5046070;28;1243;-75
2021/06/27 09:45:25;;;;;;;;;;;;;;;25.57;54.05;100664.66;5043058;28;1100;-75
2021/06/27 09:48:11;;;;;;;;;;;;;;;25.59;53.98;100670.72;5044055;28;1358;-76
2021/06/27 09:50:58;;;;;;;;;;;;;;;25.60;53.17;100672.41;5048344;28;975;-77
2021/06/27 09:53:46;;;;;;;;;;;;;;;25.59;53.55;100663.56;5046560;28;1411;-76
2021/06/27 09:56:36;;;;;;;;;;;;;;;25.58;53.23;100666.38;5048019;28;1430;-77
2021/06/27 09:59:31;;;;;;;;;;;;;;;25.58;52.55;100671.69;5047557;28;1252;-76
2021/06/27 10:02:16;;;;;;;;;;;;;;;25.58;52.83;100661.88;5048278;28;1965;-77
2021/06/27 10:05:21;;;;;;;;;;;;;;;25.58;52.63;100667.22;5049544;28;1108;-77
2021/06/27 10:08:06;;;;;;;;;;;;;;;25.60;52.44;100675.91;5042674;28;1307;-76
2021/06/27 10:11:06;;;;;;;;;;;;;;;25.60;52.22;100670.59;5047220;28;1060;-74
2021/06/27 10:13:52;;;;;;;;;;;;;;;25.60;52.41;100675.91;5047436;28;1135;-74
2021/06/27 10:16:40;;;;;;;;;;;;;;;25.61;52.27;100674.09;5048777;28;1462;-76
2021/06/27 10:19:26;;;;;;;;;;;;;;;25.63;52.04;100674.81;5047433;28;1227;-80
2021/06/27 10:22:12;;;;;;;;;;;;;;;25.61;51.91;100672.28;5055782;28;1891;-79
2021/06/27 10:24:57;;;;;;;;;;;;;;;25.66;52.46;100679.88;5052929;28;1128;-72
2021/06/27 10:27:43;;;;;;;;;;;;;;;25.65;52.33;100680.88;5048371;28;1305;-72
2021/06/27 10:30:28;;;;;;;;;;;;;;;25.66;52.37;100682.53;5045995;28;1166;-74
2021/06/27 10:33:14;;;;;;;;;;;;;;;25.66;52.46;100685.19;5045144;28;1383;-73
2021/06/27 10:36:00;;;;;;;;;;;;;;;25.65;52.08;100683.53;5047504;28;1106;-73
2021/06/27 10:38:47;;;;;;;;;;;;;;;25.65;52.33;100686.19;5047566;28;1194;-73
2021/06/27 10:41:51;;;;;;;;;;;;;;;25.65;52.75;100678.19;5045960;28;1977;-73
2021/06/27 10:44:37;;;;;;;;;;;;;;;25.66;53.34;100683.38;5053534;28;1147;-72
2021/06/27 10:47:30;;;;;;;;;;;;;;;25.66;52.51;100685.19;5056048;28;1318;-71
2021/06/27 10:50:16;;;;;;;;;;;;;;;25.66;52.63;100693.19;5046786;28;1086;-71
2021/06/27 10:53:02;;;;;;;;;;;;;;;25.65;52.10;100681.72;5047151;28;1323;-72
2021/06/27 10:55:48;;;;;;;;;;;;;;;25.66;52.30;100686.06;5044622;28;1011;-72
2021/06/27 10:58:39;;;;;;;;;;;;;;;25.65;52.25;100688.88;5044385;28;1311;-71
2021/06/27 11:01:28;;;;;;;;;;;;;;;25.64;52.27;100685.34;5045058;28;1962;-70
2021/06/27 11:04:24;;;;;;;;;;;;;;;25.64;52.21;100690.69;5044996;28;1147;-70
2021/06/27 11:07:28;;;;;;;;;;;;;;;25.66;51.69;100688.72;5043825;28;1393;-70
2021/06/27 11:10:20;;;;;;;;;;;;;;;25.67;51.52;100697.56;5047280;28;1059;-72
2021/06/27 11:13:06;;;;;;;;;;;;;;;25.67;51.38;100698.41;5045731;28;1362;-70
2021/06/27 11:15:52;;;;;;;;;;;;;;;25.69;51.96;100704.47;5043773;28;1091;-69
2021/06/27 11:18:46;;;;;;;;;;;;;;;25.69;51.81;100696.47;5045413;28;1294;-75
2021/06/27 11:21:37;;;;;;;;;;;;;;;25.75;52.01;100705.75;5045412;28;2003;-69
2021/06/27 11:24:30;;;;;;;;;;;;;;;25.73;51.72;100705.03;5046736;28;1079;-69
2021/06/27 11:27:31;;;;;;;;;;;;;;;25.34;51.00;100710.16;5047385;28;1323;-69
2021/06/27 11:30:19;;;;;;;;;;;;;;;25.00;51.09;100714.81;5047625;28;1116;-72
2021/06/27 11:33:20;;;;;;;;;;;;;;;25.04;50.26;100715.41;5045185;28;1310;-71
2021/06/27 11:36:23;;;;;;;;;;;;;;;24.90;50.26;100713.88;5046475;28;1043;-68
2021/06/27 11:39:30;;;;;;;;;;;;;;;24.82;50.18;100705.69;5045668;28;1171;-72
2021/06/27 11:42:28;;;;;;;;;;;;;;;24.84;49.75;100702.88;5044379;28;1902;-71
2021/06/27 11:45:15;;;;;;;;;;;;;;;24.91;49.78;100709.41;5045604;28;1557;-69
2021/06/27 11:48:01;;;;;;;;;;;;;;;24.78;49.22;100706.00;5045906;28;1256;-66
2021/06/27 11:50:48;;;;;;;;;;;;;;;24.74;48.68;100701.94;5047250;28;1072;-67
2021/06/27 11:53:34;;;;;;;;;;;;;;;24.68;48.51;100695.31;5040985;28;1288;-69
2021/06/27 11:56:21;;;;;;;;;;;;;;;24.65;48.56;100690.22;5041931;28;1276;-67
2021/06/27 11:59:10;;;;;;;;;;;;;;;24.65;48.14;100689.38;5044602;28;1088;-68
2021/06/27 12:02:06;;;;;;;;;;;;;;;24.63;48.35;100694.81;5043060;28;1994;-69
2021/06/27 12:04:59;;;;;;;;;;;;;;;24.65;48.46;100700.88;5045321;28;1031;-67
2021/06/27 12:08:05;;;;;;;;;;;;;;;24.63;48.55;100694.81;5043780;28;1284;-67
2021/06/27 12:10:52;;;;;;;;;;;;;;;24.63;48.76;100696.63;5045012;28;1032;-66
2021/06/27 12:13:39;;;;;;;;;;;;;;;24.62;49.07;100689.63;5043674;28;1229;-71
2021/06/27 12:16:31;;;;;;;;;;;;;;;24.61;49.39;100686.13;5044421;28;1348;-71
2021/06/27 12:19:16;;;;;;;;;;;;;;;24.61;49.39;100680.78;5046960;28;1057;-74
2021/06/27 12:22:02;;;;;;;;;;;;;;;24.63;49.37;100677.97;5043250;28;1910;-68
2021/06/27 12:24:47;;;;;;;;;;;;;;;24.61;49.28;100675.47;5043923;28;1154;-75
2021/06/27 12:27:33;;;;;;;;;;;;;;;24.60;48.92;100672.91;5043312;28;1402;-68
2021/06/27 12:30:18;;;;;;;;;;;;;;;24.63;49.11;100684.16;5042953;28;1107;-69
2021/06/27 12:33:05;;;;;;;;;;;;;;;24.61;48.88;100674.63;5045104;28;1304;-68
2021/06/27 12:36:11;;;;;;;;;;;;;;;24.61;48.62;100677.28;5044356;28;1067;-69
2021/06/27 12:39:01;;;;;;;;;;;;;;;24.60;48.40;100678.25;5044054;28;1139;-67
2021/06/27 12:41:47;;;;;;;;;;;;;;;24.61;48.47;100672.81;5043645;28;1959;-75
2021/06/27 12:44:32;;;;;;;;;;;;;;;24.66;48.64;100670.59;5044944;28;1052;-69
2021/06/27 12:47:28;;;;;;;;;;;;;;;24.75;48.40;100672.50;5045333;28;1330;-70
2021/06/27 12:50:13;;;;;;;;;;;;;;;24.74;48.54;100664.66;5043959;28;1105;-66
2021/06/27 12:53:02;;;;;;;;;;;;;;;24.66;48.41;100656.41;5044971;28;1312;-64
2021/06/27 12:56:08;;;;;;;;;;;;;;;24.81;47.79;100668.50;5044768;28;1031;-69
2021/06/27 12:58:54;;;;;;;;;;;;;;;24.85;47.38;100672.59;5044152;28;1133;-67
2021/06/27 13:01:56;;;;;;;;;;;;;;;24.69;47.30;100662.34;5042207;28;1963;-66
2021/06/27 13:04:51;;;;;;;;;;;;;;;24.62;47.13;100665.66;5041971;28;1075;-65
2021/06/27 13:07:42;;;;;;;;;;;;;;;24.62;47.11;100665.66;5044381;28;1359;-66
2021/06/27 13:10:28;;;;;;;;;;;;;;;24.56;47.09;100655.50;5043536;28;1126;-64
2021/06/27 13:13:16;;;;;;;;;;;;;;;24.54;46.95;100668.94;5044523;28;1327;-66
2021/06/27 13:16:15;;;;;;;;;;;;;;;24.51;47.11;100671.84;5052136;28;1003;-67
2021/06/27 13:19:04;;;;;;;;;;;;;;;24.53;47.09;100661.09;5046554;28;1199;-69
2021/06/27 13:21:50;;;;;;;;;;;;;;;24.56;46.61;100658.19;5039881;28;2097;-65
2021/06/27 13:24:54;;;;;;;;;;;;;;;24.53;46.95;100663.75;5047560;28;1612;-66
2021/06/27 13:27:39;;;;;;;;;;;;;;;24.60;47.01;100664.91;5046925;28;1286;-65
2021/06/27 13:30:24;;;;;;;;;;;;;;;24.54;46.49;100662.75;5045119;28;1043;-66
2021/06/27 13:33:10;;;;;;;;;;;;;;;24.52;46.35;100651.41;5047993;28;1418;-68
2021/06/27 13:36:04;;;;;;;;;;;;;;;24.61;46.35;100656.81;5046308;28;1037;-66
2021/06/27 13:38:52;;;;;;;;;;;;;;;24.48;46.38;100656.97;5048244;28;1158;-66
2021/06/27 13:41:38;;;;;;;;;;;;;;;24.47;46.63;100647.28;5046825;28;1898;-66
2021/06/27 13:44:23;;;;;;;;;;;;;;;24.45;46.59;100657.25;5047136;28;1201;-66
2021/06/27 13:47:08;;;;;;;;;;;;;;;24.47;46.36;100657.94;5045579;28;1371;-67
2021/06/27 13:49:54;;;;;;;;;;;;;;;24.44;46.37;100652.03;5047302;28;1215;-66
2021/06/27 13:52:39;;;;;;;;;;;;;;;24.47;46.29;100651.78;5047250;28;1312;-68
2021/06/27 13:55:25;;;;;;;;;;;;;;;24.43;46.25;100658.34;5047667;28;1074;-66
2021/06/27 13:58:10;;;;;;;;;;;;;;;24.43;46.14;100651.19;5043912;28;1255;-65
2021/06/27 14:00:56;;;;;;;;;;;;;;;24.44;46.03;100660.00;5044928;28;1971;-62
2021/06/27 14:03:42;;;;;;;;;;;;;;;24.46;46.12;100653.63;5046177;28;1339;-64
2021/06/27 14:06:28;;;;;;;;;;;;;;;24.48;45.90;100658.78;5042144;28;1317;-65
2021/06/27 14:09:17;;;;;;;;;;;;;;;24.50;46.34;100656.84;5044979;28;1529;-67
2021/06/27 14:12:03;;;;;;;;;;;;;;;24.57;46.28;100649.19;5046693;28;1351;-65
2021/06/27 14:14:48;;;;;;;;;;;;;;;24.55;46.54;100653.81;5045498;28;1102;-65
2021/06/27 14:17:33;;;;;;;;;;;;;;;24.62;46.17;100655.00;5044530;28;1590;-63
2021/06/27 14:20:19;;;;;;;;;;;;;;;24.68;47.00;100650.03;5045063;28;1083;-68
2021/06/27 14:23:04;;;;;;;;;;;;;;;24.70;46.47;100663.19;5044157;28;1934;-65
2021/06/27 14:25:49;;;;;;;;;;;;;;;24.69;46.54;100645.50;5045699;28;1051;-64
2021/06/27 14:28:35;;;;;;;;;;;;;;;24.71;46.56;100659.56;5045752;28;1389;-63
2021/06/27 14:31:26;;;;;;;;;;;;;;;24.73;46.43;100652.28;5047633;28;1379;-63